Time;durP1;ratioP1;P1;durP2;ratioP2;P2;SDS_P1;SDS_P2;PMS_P1;PMS_P2;Temp;Humidity;BMP_temperature;BMP_pressure;BME280_temperature;BME280_humidity;BME280_pressure;Samples;Min_cycle;Max_cycle;Signal;HPM_P1;HPM_P2
2022/04/07 00:01:52;;;;;;;1.17;1.00;;;11.20;84.00;;;11.39;62.05;96232.34;4948511;29;20055;-43
2022/04/07 00:04:21;;;;;;;1.57;1.00;;;11.20;83.10;;;11.40;61.86;96230.53;4948853;29;20043;-42
2022/04/07 00:06:49;;;;;;;1.17;0.90;;;11.30;83.10;;;11.38;61.53;96220.06;4948805;29;20047;-41
2022/04/07 00:09:17;;;;;;;1.13;0.88;;;11.20;82.50;;;11.41;61.52;96229.50;4947724;28;20055;-42
2022/04/07 00:11:44;;;;;;;2.00;0.90;;;11.30;81.90;;;11.39;60.98;96216.38;4949399;29;20055;-41
2022/04/07 00:14:13;;;;;;;1.25;0.80;;;11.30;81.20;;;11.38;60.96;96198.75;4948389;29;20051;-42
2022/04/07 00:16:41;;;;;;;1.60;1.05;;;11.20;80.10;;;11.37;60.58;96209.59;4949146;29;20061;-42
2022/04/07 00:19:09;;;;;;;1.00;0.88;;;11.20;79.10;;;11.39;60.38;96200.38;4949003;29;20065;-42
2022/04/07 00:21:38;;;;;;;1.10;0.85;;;11.20;79.50;;;11.35;60.78;96196.47;4949005;29;20051;-42
2022/04/07 00:24:08;;;;;;;1.20;1.10;;;11.20;78.70;;;11.28;60.36;96184.16;4949900;29;20058;-41
2022/04/07 00:26:35;;;;;;;1.70;1.10;;;11.10;78.80;;;11.26;60.26;96176.34;4949993;29;20055;-41
2022/04/07 00:29:04;;;;;;;0.87;0.87;;;11.10;78.40;;;11.22;59.82;96173.31;4948612;29;20053;-41
2022/04/07 00:31:39;;;;;;;1.70;1.00;;;11.10;77.20;;;11.15;60.04;96164.47;4949521;29;20043;-41
2022/04/07 00:34:10;;;;;;;1.25;0.95;;;11.10;77.60;;;11.13;59.47;96166.50;4949223;28;20047;-41
2022/04/07 00:36:39;;;;;;;1.75;0.98;;;11.10;76.80;;;11.09;60.06;96167.09;4948196;28;20369;-44
2022/04/07 00:39:08;;;;;;;1.10;1.00;;;11.00;76.90;;;11.07;60.03;96167.31;4948043;29;20053;-41
2022/04/07 00:41:37;;;;;;;1.20;1.10;;;11.00;76.90;;;11.07;59.86;96164.66;4947563;28;20257;-41
2022/04/07 00:44:08;;;;;;;2.27;1.13;;;11.00;76.60;;;11.02;59.50;96165.22;4947956;29;20054;-41
2022/04/07 00:46:38;;;;;;;1.07;0.93;;;10.90;76.20;;;11.05;59.57;96164.03;4949168;29;20070;-41
2022/04/07 00:49:08;;;;;;;0.70;0.70;;;10.90;76.50;;;11.04;59.72;96157.88;4947760;29;20043;-41
2022/04/07 00:51:39;;;;;;;1.57;0.80;;;11.00;76.10;;;11.09;59.74;96154.63;4948544;29;20050;-42
2022/04/07 00:54:09;;;;;;;0.80;0.77;;;11.00;76.10;;;11.12;59.47;96162.19;4948269;29;20406;-42
2022/04/07 00:56:38;;;;;;;2.83;1.45;;;11.10;75.70;;;11.09;59.71;96149.28;4948130;29;20341;-42
2022/04/07 00:59:07;;;;;;;1.63;0.90;;;11.00;75.50;;;11.05;59.31;96142.72;4947952;29;20059;-42
2022/04/07 01:01:35;;;;;;;1.77;1.20;;;11.00;75.10;;;11.08;59.53;96144.97;4946479;29;20341;-41
2022/04/07 01:04:03;;;;;;;0.83;0.83;;;11.00;75.40;;;11.09;59.41;96140.47;4945964;29;20043;-42
2022/04/07 01:06:31;;;;;;;1.15;0.80;;;11.00;75.40;;;11.09;59.35;96143.97;4949688;28;20051;-41
2022/04/07 01:09:00;;;;;;;0.80;0.80;;;11.00;75.60;;;11.08;59.42;96138.84;4948368;29;20059;-42
2022/04/07 01:11:31;;;;;;;1.73;0.90;;;10.90;75.80;;;11.08;59.42;96136.97;4948360;29;20065;-42
2022/04/07 01:13:59;;;;;;;0.90;0.80;;;10.90;76.20;;;11.03;59.72;96136.75;4947466;29;20058;-42
2022/04/07 01:16:28;;;;;;;0.77;0.73;;;10.80;75.90;;;10.99;59.37;96123.03;4948923;28;20078;-42
2022/04/07 01:18:59;;;;;;;1.50;1.10;;;10.80;75.50;;;10.97;59.19;96124.25;4948162;28;20367;-42
2022/04/07 01:21:28;;;;;;;1.03;0.60;;;10.80;75.40;;;10.95;59.60;96120.97;4948028;29;20047;-42
2022/04/07 01:24:07;;;;;;;0.90;0.70;;;10.80;75.50;;;10.92;59.22;96121.38;4947420;29;20050;-41
2022/04/07 01:26:38;;;;;;;2.37;0.90;;;10.80;75.50;;;10.93;59.45;96112.38;4949251;29;20050;-43
2022/04/07 01:29:13;;;;;;;0.93;0.83;;;10.80;75.60;;;10.92;59.33;96108.06;4948987;29;20070;-41
2022/04/07 01:31:42;;;;;;;0.97;0.70;;;10.70;75.80;;;10.89;59.31;96101.28;4947679;29;20049;-41
2022/04/07 01:34:17;;;;;;;1.20;0.60;;;10.70;76.00;;;10.78;59.64;96113.34;4948104;29;20272;-41
2022/04/07 01:36:48;;;;;;;0.70;0.70;;;10.60;76.90;;;10.73;60.03;96104.31;4947418;29;20055;-41
2022/04/07 01:39:21;;;;;;;1.03;0.67;;;10.50;77.30;;;10.75;60.24;96105.75;4947598;28;20273;-42
2022/04/07 01:41:51;;;;;;;0.88;0.70;;;10.60;77.50;;;10.75;60.07;96105.75;4946756;29;20063;-42
2022/04/07 01:44:19;;;;;;;0.80;0.53;;;10.60;77.90;;;10.80;60.44;96099.84;4946295;29;20238;-41
2022/04/07 01:46:48;;;;;;;0.63;0.60;;;10.60;77.80;;;10.82;60.44;96101.28;4947559;29;20073;-42
2022/04/07 01:49:19;;;;;;;1.50;0.63;;;10.70;78.00;;;10.84;60.04;96095.75;4947777;29;20337;-42
2022/04/07 01:51:49;;;;;;;0.70;0.60;;;10.60;78.20;;;10.81;60.70;96099.63;4947217;29;20320;-42
2022/04/07 01:54:18;;;;;;;1.10;0.80;;;10.60;78.60;;;10.78;60.68;96099.22;4947266;28;20059;-42
2022/04/07 01:56:47;;;;;;;0.93;0.70;;;10.60;78.50;;;10.77;60.58;96095.72;4946753;29;20059;-41
2022/04/07 01:59:15;;;;;;;0.97;0.70;;;10.60;78.60;;;10.77;60.49;96086.94;4947754;29;20059;-41
2022/04/07 02:01:43;;;;;;;0.60;0.50;;;10.60;78.30;;;10.75;60.27;96088.97;4947828;28;20063;-42
2022/04/07 02:04:11;;;;;;;0.97;0.80;;;10.60;77.70;;;10.77;60.30;96101.06;4950331;29;20043;-43
2022/04/07 02:06:39;;;;;;;0.93;0.60;;;10.60;77.70;;;10.75;60.20;96095.09;4949710;29;20241;-41
2022/04/07 02:09:07;;;;;;;0.50;0.50;;;10.60;76.90;;;10.75;59.96;96089.78;4949725;29;20051;-41
2022/04/07 02:11:35;;;;;;;0.97;0.50;;;10.60;76.20;;;10.78;59.85;96089.41;4949758;28;20077;-41
2022/04/07 02:14:03;;;;;;;0.80;0.70;;;10.60;76.40;;;10.83;60.02;96094.09;4951595;28;20051;-41
2022/04/07 02:16:31;;;;;;;1.00;0.80;;;10.70;76.40;;;10.86;60.13;96084.88;4951578;29;20057;-41
2022/04/07 02:18:59;;;;;;;1.23;0.80;;;10.70;75.80;;;10.84;59.75;96088.59;4949622;28;20051;-42
2022/04/07 02:21:27;;;;;;;1.30;0.60;;;10.70;75.50;;;10.86;59.17;96076.91;4933165;29;20093;-42
2022/04/07 02:23:56;;;;;;;0.80;0.80;;;10.70;75.10;;;10.88;59.19;96081.03;4950070;29;20051;-41
2022/04/07 02:26:24;;;;;;;0.85;0.70;;;10.70;75.00;;;10.91;59.50;96079.78;4950908;29;20057;-41
2022/04/07 02:28:52;;;;;;;0.67;0.67;;;10.80;74.90;;;10.94;59.72;96074.06;4950451;28;20363;-42
2022/04/07 02:31:20;;;;;;;0.63;0.60;;;10.80;75.00;;;10.97;59.81;96076.31;4951602;29;20062;-41
2022/04/07 02:33:48;;;;;;;1.53;0.60;;;10.80;75.00;;;10.81;59.78;96078.31;4950774;29;20051;-43
2022/04/07 02:36:17;;;;;;;0.90;0.80;;;10.70;76.00;;;10.82;60.19;96073.84;4951232;29;20058;-42
2022/04/07 02:38:45;;;;;;;1.30;1.10;;;10.70;76.50;;;10.79;60.74;96067.06;4951099;29;20058;-42
2022/04/07 02:41:13;;;;;;;0.50;0.50;;;10.60;77.10;;;10.74;60.33;96071.34;4950549;28;20122;-43
2022/04/07 02:43:41;;;;;;;0.67;0.67;;;10.60;77.90;;;10.71;60.63;96069.09;4951439;29;20675;-42
2022/04/07 02:46:10;;;;;;;1.23;0.97;;;10.50;78.40;;;10.69;60.72;96068.47;4951354;29;20411;-42
2022/04/07 02:48:39;;;;;;;0.83;0.80;;;10.50;79.00;;;10.71;61.10;96069.91;4950927;29;20057;-42
2022/04/07 02:51:06;;;;;;;1.67;0.97;;;10.60;79.30;;;10.73;60.76;96062.56;4950276;29;20053;-42
2022/04/07 02:53:34;;;;;;;1.00;0.90;;;10.60;79.30;;;10.75;61.54;96059.69;4950918;28;20054;-41
2022/04/07 02:56:02;;;;;;;0.67;0.63;;;10.60;80.40;;;10.75;61.57;96062.34;4950378;29;20047;-41
2022/04/07 02:58:30;;;;;;;1.97;0.90;;;10.60;80.00;;;10.77;61.38;96061.13;4950150;29;20234;-42
2022/04/07 03:00:58;;;;;;;1.40;0.80;;;10.60;80.60;;;10.77;61.53;96055.00;4950332;28;20067;-41
2022/04/07 03:03:26;;;;;;;1.20;0.80;;;10.60;80.40;;;10.74;61.71;96052.72;4949703;28;20051;-42
2022/04/07 03:05:54;;;;;;;0.87;0.60;;;10.50;81.60;;;10.71;61.88;96043.28;4933493;29;20059;-42
2022/04/07 03:08:22;;;;;;;2.10;0.83;;;10.50;81.90;;;10.70;61.91;96043.50;4949965;29;20062;-41
2022/04/07 03:10:50;;;;;;;3.17;0.70;;;10.40;82.80;;;10.68;62.42;96053.53;4949620;28;20051;-42
2022/04/07 03:13:18;;;;;;;1.37;0.70;;;10.40;82.90;;;10.66;62.46;96042.25;4949923;28;20051;-42
2022/04/07 03:15:46;;;;;;;1.57;1.07;;;10.40;83.30;;;10.66;62.35;96045.72;4950249;29;20059;-43
2022/04/07 03:18:14;;;;;;;1.40;0.80;;;10.40;84.10;;;10.61;62.58;96032.22;4949558;29;20047;-42
2022/04/07 03:20:42;;;;;;;0.97;0.70;;;10.30;83.80;;;10.60;62.52;96033.22;4949140;29;20070;-42
2022/04/07 03:23:10;;;;;;;1.13;0.97;;;10.30;83.80;;;10.61;62.43;96029.56;4949758;29;20381;-42
2022/04/07 03:25:38;;;;;;;0.73;0.70;;;10.40;83.60;;;10.59;62.88;96034.28;4950778;29;20603;-42
2022/04/07 03:28:08;;;;;;;1.70;0.90;;;10.30;83.80;;;10.54;62.84;96012.75;4950795;29;20070;-42
2022/04/07 03:30:36;;;;;;;1.27;0.73;;;10.30;83.90;;;10.50;62.63;96008.84;4949984;29;20054;-42
2022/04/07 03:33:06;;;;;;;0.93;0.70;;;10.30;83.30;;;10.45;62.52;96006.81;4950381;29;20057;-43
2022/04/07 03:35:38;;;;;;;1.37;0.93;;;10.20;83.20;;;10.39;62.65;95997.78;4949537;29;20059;-40
2022/04/07 03:38:07;;;;;;;0.80;0.80;;;10.20;83.20;;;10.40;62.69;96009.25;4948561;28;20088;-41
2022/04/07 03:40:35;;;;;;;1.27;0.70;;;10.20;83.00;;;10.41;62.66;96001.06;4945828;28;20059;-41
2022/04/07 03:43:03;;;;;;;1.00;0.83;;;10.30;82.80;;;10.38;62.68;95997.97;4949728;29;20051;-41
2022/04/07 03:45:31;;;;;;;1.20;0.80;;;10.20;82.20;;;10.33;62.42;96003.06;4950784;29;20055;-40
2022/04/07 03:47:59;;;;;;;2.93;1.13;;;10.20;82.40;;;10.29;62.34;95999.94;4950058;29;20053;-41
2022/04/07 03:50:27;;;;;;;1.17;0.83;;;10.10;82.20;;;10.34;62.30;95989.56;4949055;29;20047;-41
2022/04/07 03:52:55;;;;;;;2.03;0.70;;;10.20;82.10;;;10.36;62.73;95989.38;4948096;29;20050;-41
2022/04/07 03:55:24;;;;;;;1.17;1.07;;;10.20;82.00;;;10.34;62.35;95986.91;4948722;29;20047;-41
2022/04/07 03:57:51;;;;;;;1.23;1.00;;;10.20;82.40;;;10.30;62.72;95975.03;4949187;29;20062;-41
2022/04/07 04:00:20;;;;;;;0.93;0.73;;;10.10;82.30;;;10.30;62.42;95974.19;4949258;29;20487;-42
2022/04/07 04:02:50;;;;;;;0.80;0.80;;;10.10;82.20;;;10.27;62.56;95954.13;4948708;29;20059;-42
2022/04/07 04:05:19;;;;;;;0.70;0.50;;;10.10;82.40;;;10.23;62.80;95948.38;4946853;29;20065;-42
2022/04/07 04:07:48;;;;;;;1.27;0.90;;;10.10;82.30;;;10.21;62.39;95963.72;4949642;29;20236;-42
2022/04/07 04:10:17;;;;;;;1.70;0.80;;;10.10;82.00;;;10.19;62.71;95963.09;4948685;28;20059;-42
2022/04/07 04:12:45;;;;;;;0.50;0.50;;;10.00;82.00;;;10.23;62.38;95955.53;4949213;29;20367;-42
2022/04/07 04:15:13;;;;;;;1.10;0.90;;;10.10;82.00;;;10.19;62.26;95955.13;4948320;29;20051;-42
2022/04/07 04:17:41;;;;;;;2.07;0.67;;;10.10;81.90;;;10.17;62.55;95943.88;4949062;28;20242;-42
2022/04/07 04:20:10;;;;;;;0.93;0.73;;;10.00;82.00;;;10.18;62.83;95942.03;4948588;29;20055;-42
2022/04/07 04:22:38;;;;;;;1.13;0.80;;;10.00;82.10;;;10.18;62.33;95937.53;4946910;29;20059;-41
2022/04/07 04:25:08;;;;;;;0.70;0.70;;;10.00;81.80;;;10.15;62.70;95937.13;4947861;28;20057;-43
2022/04/07 04:27:35;;;;;;;1.60;0.73;;;10.10;81.90;;;10.16;62.55;95944.91;4948246;28;20059;-42
2022/04/07 04:30:04;;;;;;;1.23;0.70;;;10.10;81.60;;;10.13;62.64;95953.25;4949092;28;20057;-42
2022/04/07 04:32:32;;;;;;;0.60;0.60;;;10.10;81.30;;;10.17;62.39;95951.03;4949025;29;20062;-42
2022/04/07 04:35:00;;;;;;;1.43;1.30;;;10.10;81.50;;;10.22;62.79;95951.25;4948675;28;20057;-42
2022/04/07 04:37:28;;;;;;;0.87;0.87;;;10.10;81.50;;;10.21;62.55;95945.09;4948355;29;20059;-42
2022/04/07 04:39:56;;;;;;;1.00;0.80;;;10.10;81.30;;;10.19;62.29;95920.53;4948379;28;20075;-43
2022/04/07 04:42:23;;;;;;;0.70;0.70;;;10.10;81.10;;;10.23;62.13;95935.06;4948267;29;20051;-42
2022/04/07 04:44:51;;;;;;;0.70;0.70;;;10.20;80.70;;;10.22;62.24;95937.97;4949353;29;20043;-42
2022/04/07 04:47:19;;;;;;;0.93;0.63;;;10.10;80.40;;;10.21;62.36;95939.78;4949522;29;20050;-42
2022/04/07 04:49:48;;;;;;;0.73;0.70;;;10.20;80.70;;;10.26;62.12;95925.91;4947350;29;20049;-42
2022/04/07 04:52:15;;;;;;;0.80;0.80;;;10.20;79.50;;;10.27;62.02;95924.84;4948672;29;20059;-42
2022/04/07 04:54:43;;;;;;;3.77;1.00;;;10.20;79.60;;;10.25;61.92;95925.09;4947449;29;20610;-43
2022/04/07 04:57:11;;;;;;;2.10;1.60;;;10.20;79.50;;;10.26;61.72;95920.56;4948119;29;20230;-43
2022/04/07 04:59:39;;;;;;;0.77;0.73;;;10.20;79.00;;;10.24;61.85;95923.44;4948853;29;20211;-43
2022/04/07 05:02:07;;;;;;;1.50;1.40;;;10.20;79.40;;;10.22;61.91;95911.38;4947184;28;20067;-43
2022/04/07 05:04:36;;;;;;;1.27;0.70;;;10.20;79.80;;;10.28;62.29;95907.09;4947629;29;20283;-43
2022/04/07 05:07:04;;;;;;;0.97;0.80;;;10.20;79.90;;;10.29;61.99;95909.53;4948754;28;20065;-43
2022/04/07 05:09:32;;;;;;;0.80;0.80;;;10.20;79.90;;;10.28;62.26;95909.75;4947553;29;20252;-42
2022/04/07 05:12:00;;;;;;;1.33;1.00;;;10.20;80.50;;;10.27;62.16;95921.38;4946354;29;20065;-43
2022/04/07 05:14:28;;;;;;;1.70;0.87;;;10.20;80.90;;;10.24;62.49;95917.31;4947320;29;20051;-42
2022/04/07 05:16:56;;;;;;;1.43;0.83;;;10.10;81.30;;;10.29;62.45;95914.84;4948138;29;20074;-45
2022/04/07 05:19:24;;;;;;;0.67;0.67;;;10.20;81.40;;;10.30;62.56;95915.69;4947842;29;20055;-43
2022/04/07 05:21:52;;;;;;;1.53;0.80;;;10.20;81.20;;;10.29;62.64;95911.38;4947608;28;20073;-45
2022/04/07 05:24:19;;;;;;;1.03;0.83;;;10.20;81.00;;;10.32;62.49;95908.34;4946453;28;20365;-44
2022/04/07 05:26:48;;;;;;;1.90;0.83;;;10.30;81.00;;;10.31;62.37;95902.19;4948510;29;20260;-43
2022/04/07 05:29:15;;;;;;;3.77;1.60;;;10.20;80.80;;;10.24;62.72;95902.16;4947725;29;20438;-45
2022/04/07 05:31:43;;;;;;;1.33;0.97;;;10.20;81.00;;;10.27;62.91;95919.53;4948950;29;20526;-43
2022/04/07 05:34:13;;;;;;;1.53;0.83;;;10.20;80.90;;;10.24;62.65;95893.38;4947992;29;20067;-42
2022/04/07 05:36:42;;;;;;;3.60;2.00;;;10.20;81.20;;;10.25;62.70;95885.19;4949377;28;20055;-42
2022/04/07 05:39:10;;;;;;;1.30;1.00;;;10.20;81.10;;;10.19;63.18;95888.63;4951295;28;20382;-41
2022/04/07 05:41:37;;;;;;;2.10;1.30;;;10.20;81.40;;;10.22;62.71;95896.22;4951094;28;20069;-42
2022/04/07 05:44:06;;;;;;;1.20;0.83;;;10.20;81.30;;;10.23;62.96;95889.88;4950771;29;20383;-42
2022/04/07 05:46:33;;;;;;;3.07;1.43;;;10.20;81.50;;;10.23;62.64;95881.88;4952250;29;20065;-41
2022/04/07 05:49:01;;;;;;;1.33;1.23;;;10.20;81.70;;;10.25;62.92;95876.38;4951401;29;20448;-41
2022/04/07 05:51:29;;;;;;;1.07;0.77;;;10.20;81.50;;;10.30;62.88;95891.75;4950027;29;20048;-41
2022/04/07 05:53:57;;;;;;;1.83;1.00;;;10.20;81.20;;;10.29;62.86;95879.44;4950153;28;20051;-41
2022/04/07 05:56:25;;;;;;;1.63;0.97;;;10.30;81.20;;;10.29;62.60;95864.31;4949900;29;20051;-41
2022/04/07 05:58:52;;;;;;;1.20;0.90;;;10.30;80.70;;;10.32;62.43;95850.63;4950945;29;20046;-41
2022/04/07 06:01:21;;;;;;;2.57;1.20;;;10.30;80.80;;;10.34;62.33;95837.16;4951434;28;20065;-41
2022/04/07 06:03:48;;;;;;;1.87;1.30;;;10.30;80.30;;;10.34;62.32;95813.22;4950338;29;20043;-42
2022/04/07 06:06:16;;;;;;;2.80;1.50;;;10.30;80.30;;;10.36;62.16;95804.00;4950598;29;20043;-41
2022/04/07 06:08:44;;;;;;;4.77;3.13;;;10.30;80.20;;;10.38;62.29;95822.41;4950859;29;20051;-41
2022/04/07 06:11:13;;;;;;;0.83;0.80;;;10.30;80.30;;;10.37;62.40;95834.06;4951001;29;20059;-41
2022/04/07 06:13:42;;;;;;;1.80;0.83;;;10.30;79.30;;;10.40;62.02;95834.47;4951309;29;20051;-42
2022/04/07 06:16:10;;;;;;;1.63;0.73;;;10.40;78.60;;;10.43;61.75;95839.41;4952316;28;20063;-41
2022/04/07 06:18:38;;;;;;;0.60;0.60;;;10.50;77.90;;;10.53;62.25;95830.19;4950060;28;20059;-41
2022/04/07 06:21:06;;;;;;;0.83;0.83;;;10.50;78.40;;;10.56;61.80;95840.41;4950124;29;20371;-41
2022/04/07 06:23:34;;;;;;;0.87;0.67;;;10.60;77.60;;;10.58;61.37;95825.06;4949659;29;20063;-41
2022/04/07 06:26:02;;;;;;;1.57;0.70;;;10.60;77.10;;;10.59;61.02;95824.88;4951023;29;20257;-41
2022/04/07 06:28:30;;;;;;;1.00;0.77;;;10.60;76.80;;;10.61;60.96;95820.16;4950949;29;20073;-41
2022/04/07 06:31:01;;;;;;;1.10;0.75;;;10.70;76.90;;;10.66;60.86;95811.53;4950166;29;20057;-40
2022/04/07 06:33:28;;;;;;;1.20;1.10;;;10.70;76.20;;;10.64;61.27;95826.91;4950732;28;20057;-41
2022/04/07 06:36:16;;;;;;;0.83;0.70;;;10.70;76.40;;;10.66;61.11;95814.19;4951398;29;20055;-42
2022/04/07 06:38:44;;;;;;;1.20;0.83;;;10.70;76.20;;;10.72;61.17;95815.22;4950441;29;20249;-41
2022/04/07 06:41:12;;;;;;;0.80;0.60;;;10.80;76.10;;;10.69;60.66;95819.13;4948137;29;20061;-41
2022/04/07 06:43:41;;;;;;;1.13;0.60;;;10.80;76.10;;;10.67;60.66;95820.38;4950354;29;20071;-41
2022/04/07 06:46:09;;;;;;;0.60;0.60;;;10.80;75.10;;;10.75;60.76;95810.31;4951080;29;20355;-41
2022/04/07 06:48:37;;;;;;;0.70;0.70;;;10.80;75.80;;;10.78;60.59;95803.78;4950481;28;20058;-42
2022/04/07 06:51:06;;;;;;;0.60;0.53;;;10.80;75.40;;;10.78;60.55;95801.09;4950498;29;20051;-43
2022/04/07 06:53:33;;;;;;;0.40;0.40;;;10.80;75.50;;;10.77;60.85;95808.25;4950866;28;20262;-41
2022/04/07 06:56:02;;;;;;;0.50;0.47;;;10.80;75.60;;;10.79;60.99;95814.19;4949506;28;20070;-41
2022/04/07 06:58:30;;;;;;;0.60;0.60;;;10.90;75.40;;;10.81;60.18;95803.34;4949210;29;20057;-41
2022/04/07 07:00:57;;;;;;;0.40;0.37;;;10.90;75.10;;;10.89;60.29;95795.13;4950835;29;20066;-41
2022/04/07 07:03:27;;;;;;;0.80;0.60;;;11.00;74.70;;;10.92;59.86;95804.56;4950017;28;20323;-42
2022/04/07 07:05:58;;;;;;;0.63;0.63;;;11.10;74.60;;;10.97;60.04;95781.59;4949408;28;20058;-42
2022/04/07 07:08:26;;;;;;;0.68;0.60;;;11.10;74.30;;;11.02;60.09;95768.47;4950311;29;20050;-42
2022/04/07 07:10:55;;;;;;;0.70;0.70;;;11.20;74.20;;;11.01;60.33;95777.50;4949539;29;20051;-42
2022/04/07 07:13:23;;;;;;;1.03;0.60;;;11.10;74.10;;;11.01;59.58;95763.34;4949556;29;20047;-42
2022/04/07 07:15:54;;;;;;;0.50;0.50;;;11.10;74.10;;;11.06;60.02;95762.72;4950067;29;20058;-43
2022/04/07 07:18:22;;;;;;;0.97;0.40;;;11.10;73.90;;;11.10;59.99;95750.63;4950408;29;20232;-42
2022/04/07 07:20:50;;;;;;;0.50;0.50;;;11.20;74.00;;;11.09;59.62;95763.13;4950128;28;20074;-42
2022/04/07 07:23:18;;;;;;;2.25;0.70;;;11.20;73.40;;;11.11;60.10;95754.91;4948517;29;20357;-44
2022/04/07 07:25:47;;;;;;;1.33;0.70;;;11.20;73.70;;;11.15;59.87;95745.50;4949829;29;20061;-42
2022/04/07 07:28:15;;;;;;;0.60;0.60;;;11.30;73.70;;;11.19;59.70;95758.19;4949850;29;20252;-42
2022/04/07 07:30:43;;;;;;;1.00;0.70;;;11.30;73.10;;;11.20;59.63;95740.34;4949796;29;20053;-43
2022/04/07 07:33:11;;;;;;;0.70;0.70;;;11.30;73.50;;;11.22;59.30;95733.78;4949411;28;20051;-42
2022/04/07 07:35:39;;;;;;;0.38;0.38;;;11.30;73.20;;;11.22;59.57;95736.47;4949039;29;20055;-42
2022/04/07 07:38:07;;;;;;;0.98;0.70;;;11.30;73.20;;;11.24;59.11;95728.22;4948209;29;20245;-42
2022/04/07 07:40:35;;;;;;;1.85;1.05;;;11.40;73.40;;;11.26;59.82;95734.16;4949724;29;20367;-42
2022/04/07 07:43:03;;;;;;;1.80;1.17;;;11.40;73.40;;;11.28;59.88;95736.63;4948443;29;20055;-42
2022/04/07 07:45:35;;;;;;;1.90;1.20;;;11.40;72.90;;;11.33;59.39;95705.66;4947920;29;20047;-43
2022/04/07 07:48:28;;;;;;;2.05;1.08;;;11.50;73.40;;;11.38;59.61;95707.66;4949084;29;20047;-44
2022/04/07 07:50:58;;;;;;;2.03;1.58;;;11.50;72.80;;;11.38;59.50;95713.00;4947627;29;20043;-43
2022/04/07 07:53:26;;;;;;;0.82;0.40;;;11.50;73.00;;;11.28;58.91;95707.31;4947534;29;20062;-44
2022/04/07 07:55:54;;;;;;;1.63;0.85;;;11.40;72.00;;;11.31;59.55;95675.75;4949031;29;20061;-45
2022/04/07 07:58:24;;;;;;;1.30;0.70;;;11.40;73.40;;;11.40;59.40;95686.97;4947128;29;20352;-44
2022/04/07 08:00:53;;;;;;;0.93;0.47;;;11.50;73.60;;;11.40;59.27;95695.78;4937779;29;20063;-43
2022/04/07 08:03:22;;;;;;;0.98;0.75;;;11.50;72.90;;;11.43;59.50;95684.69;4936585;29;20047;-43
2022/04/07 08:05:50;;;;;;;0.30;0.30;;;11.50;72.90;;;11.47;59.31;95679.75;4939833;29;20233;-46
2022/04/07 08:08:18;;;;;;;0.52;0.40;;;11.60;73.00;;;11.48;59.23;95677.91;4936514;29;20069;-44
2022/04/07 08:10:47;;;;;;;0.50;0.50;;;11.60;72.40;;;11.46;59.58;95675.47;4937671;29;20051;-44
2022/04/07 08:13:15;;;;;;;1.23;0.60;;;11.60;72.40;;;11.51;59.13;95662.28;4939147;28;20043;-44
2022/04/07 08:15:43;;;;;;;1.00;0.75;;;11.70;72.90;;;11.57;59.43;95663.28;4957564;28;20081;-44
2022/04/07 08:18:13;;;;;;;0.75;0.60;;;11.70;72.90;;;11.60;59.24;95657.53;4952729;28;20055;-43
2022/04/07 08:20:41;;;;;;;1.55;0.60;;;11.80;72.80;;;11.66;58.93;95656.66;4960253;28;20055;-44
2022/04/07 08:23:09;;;;;;;0.70;0.52;;;11.80;72.60;;;11.63;58.90;95655.25;4958578;28;20051;-43
2022/04/07 08:25:38;;;;;;;0.75;0.60;;;11.80;72.00;;;11.70;59.19;95651.72;4958743;28;20059;-44
2022/04/07 08:28:06;;;;;;;0.57;0.50;;;11.90;71.90;;;11.76;59.11;95641.00;4959481;28;20051;-46
2022/04/07 08:30:34;;;;;;;2.33;0.52;;;11.90;72.10;;;11.76;59.68;95648.19;4958961;28;20050;-44
2022/04/07 08:33:04;;;;;;;0.65;0.50;;;12.00;72.80;;;11.80;59.83;95639.53;4960050;29;20249;-45
2022/04/07 08:35:32;;;;;;;1.02;0.38;;;12.00;73.20;;;11.81;59.94;95649.16;4958211;29;20073;-45
2022/04/07 08:38:00;;;;;;;0.85;0.43;;;12.00;74.80;;;11.80;60.37;95644.84;4959531;28;20051;-46
2022/04/07 08:40:30;;;;;;;3.72;0.63;;;11.90;74.80;;;11.83;60.18;95644.44;4959261;28;20131;-44
2022/04/07 08:43:00;;;;;;;1.38;0.95;;;11.90;75.00;;;11.82;59.86;95636.66;4958323;29;20047;-46
2022/04/07 08:45:29;;;;;;;0.95;0.82;;;11.90;74.10;;;11.88;59.47;95641.09;4959790;29;20047;-44
2022/04/07 08:47:58;;;;;;;0.87;0.80;;;12.10;73.20;;;11.95;59.66;95617.09;4957371;28;20053;-45
2022/04/07 08:50:27;;;;;;;1.15;0.60;;;12.10;73.40;;;11.98;59.39;95605.97;4958698;29;20043;-45
2022/04/07 08:52:56;;;;;;;0.70;0.50;;;12.20;72.00;;;11.98;59.08;95597.97;4959262;28;20047;-45
2022/04/07 08:55:25;;;;;;;1.35;1.02;;;12.30;72.10;;;12.04;58.02;95612.28;4958684;28;20051;-44
2022/04/07 08:57:53;;;;;;;1.20;1.10;;;12.40;70.10;;;12.11;58.68;95619.19;4959906;28;20353;-45
2022/04/07 09:00:22;;;;;;;0.35;0.35;;;12.40;70.70;;;12.15;58.29;95606.22;4959767;29;20055;-45
2022/04/07 09:02:54;;;;;;;0.82;0.70;;;12.50;70.20;;;12.15;58.25;95625.69;4959727;29;20039;-44
2022/04/07 09:05:25;;;;;;;2.17;1.37;;;12.50;69.60;;;12.21;57.89;95606.16;4959069;28;20065;-47
2022/04/07 09:07:57;;;;;;;1.13;1.00;;;12.50;69.90;;;12.16;57.08;95594.53;4958630;29;20501;-45
2022/04/07 09:10:28;;;;;;;1.60;0.82;;;12.50;68.00;;;12.30;57.52;95596.00;4958026;28;20078;-45
2022/04/07 09:13:04;;;;;;;2.05;1.45;;;12.60;68.60;;;12.36;57.09;95603.13;4960424;28;20069;-44
2022/04/07 09:15:32;;;;;;;1.27;0.80;;;12.70;68.00;;;12.43;56.93;95596.88;4962353;28;20069;-44
2022/04/07 09:18:01;;;;;;;0.80;0.80;;;12.70;68.00;;;12.48;57.10;95621.06;4961649;28;20057;-45
2022/04/07 09:20:29;;;;;;;1.35;1.10;;;12.80;68.00;;;12.51;57.11;95588.59;4961503;28;20057;-44
2022/04/07 09:22:59;;;;;;;1.50;1.00;;;12.80;68.20;;;12.51;57.78;95584.06;4964212;29;20341;-44
2022/04/07 09:25:28;;;;;;;2.15;0.90;;;12.80;70.10;;;12.51;57.53;95572.59;4960689;28;20047;-45
2022/04/07 09:28:00;;;;;;;0.63;0.40;;;12.70;69.30;;;12.47;57.46;95588.22;4962830;28;20058;-44
2022/04/07 09:30:37;;;;;;;3.67;0.60;;;12.70;69.70;;;12.51;58.23;95585.94;4967295;28;20043;-44
2022/04/07 09:33:05;;;;;;;1.80;0.75;;;12.70;71.00;;;12.41;57.99;95571.25;4964999;28;20341;-44
2022/04/07 09:35:33;;;;;;;0.47;0.43;;;12.60;70.60;;;12.47;58.88;95577.56;4966844;28;20050;-44
2022/04/07 09:38:02;;;;;;;0.60;0.60;;;12.60;72.20;;;12.48;59.12;95584.50;4966971;28;20226;-44
2022/04/07 09:40:30;;;;;;;1.05;0.70;;;12.60;73.30;;;12.51;58.71;95570.72;4940510;28;21455;-44
2022/04/07 09:42:58;;;;;;;0.77;0.45;;;12.60;71.90;;;12.51;58.94;95565.41;4953840;28;20059;-44
2022/04/07 09:45:26;;;;;;;0.85;0.50;;;12.70;72.40;;;12.47;58.12;95566.88;4961050;28;20043;-46
2022/04/07 09:47:55;;;;;;;0.43;0.43;;;12.60;69.80;;;12.58;58.29;95543.94;4962912;29;20051;-45
2022/04/07 09:50:29;;;;;;;0.60;0.55;;;12.70;70.80;;;12.66;58.43;95549.00;4959609;28;20069;-45
2022/04/07 09:53:03;;;;;;;3.10;1.80;;;12.90;71.90;;;12.56;58.35;95554.88;4961381;28;20219;-45
2022/04/07 09:55:42;;;;;;;8.60;5.15;;;12.90;70.90;;;12.61;58.46;95541.66;4962726;28;20047;-44
2022/04/07 09:58:12;;;;;;;0.98;0.65;;;12.90;70.80;;;12.66;58.04;95529.47;4958365;28;20356;-45
2022/04/07 10:00:41;;;;;;;2.47;2.33;;;13.00;69.90;;;12.74;58.16;95500.63;4962073;29;20222;-44
2022/04/07 10:03:09;;;;;;;0.40;0.40;;;13.00;70.10;;;12.63;56.86;95556.63;4962960;28;20245;-43
2022/04/07 10:05:38;;;;;;;0.55;0.55;;;13.00;67.80;;;12.63;57.40;95511.25;4964512;28;20063;-44
2022/04/07 10:08:07;;;;;;;0.93;0.60;;;12.90;68.80;;;12.68;57.30;95485.50;4949558;28;20243;-43
2022/04/07 10:10:36;;;;;;;0.52;0.50;;;13.00;68.90;;;12.68;56.54;95484.69;4965979;29;20047;-43
2022/04/07 10:13:04;;;;;;;0.60;0.57;;;13.00;67.10;;;12.69;56.09;95470.31;4964701;28;20063;-43
2022/04/07 10:15:35;;;;;;;2.05;0.70;;;13.10;67.20;;;12.79;56.76;95476.72;4964992;28;20058;-43
2022/04/07 10:18:09;;;;;;;0.60;0.60;;;13.10;67.70;;;12.79;55.87;95470.56;4966167;29;20057;-42
2022/04/07 10:20:44;;;;;;;0.75;0.70;;;13.20;66.30;;;12.86;56.51;95454.44;4965352;28;20054;-42
2022/04/07 10:23:56;;;;;;;0.68;0.60;;;13.20;67.60;;;13.01;56.49;95454.84;4960758;28;20047;-44
2022/04/07 10:26:26;;;;;;;1.38;0.50;;;13.40;66.70;;;13.05;55.84;95447.19;4960173;29;20066;-41
2022/04/07 10:28:55;;;;;;;0.30;0.30;;;13.50;66.40;;;13.15;56.04;95445.53;4955142;28;20057;-44